createdAt,value
2022-07-31T00:01:33.074Z,98710.47
2022-07-31T00:04:34.773Z,98712.66
2022-07-31T00:07:40.255Z,98714.59
2022-07-31T00:10:42.469Z,98716.06
2022-07-31T00:13:57.420Z,98716.47
2022-07-31T00:17:00.626Z,98714.13
2022-07-31T00:20:02.480Z,98717.16
2022-07-31T00:23:05.483Z,98715.56
2022-07-31T00:26:07.748Z,98718.38
2022-07-31T00:29:10.970Z,98708.78
2022-07-31T00:32:17.745Z,98718.31
2022-07-31T00:35:19.836Z,98715.31
2022-07-31T00:38:27.288Z,98714.91
2022-07-31T00:41:37.161Z,98712.66
2022-07-31T00:44:38.878Z,98702.84
2022-07-31T00:47:40.681Z,98692.91
2022-07-31T00:50:42.928Z,98692.91
2022-07-31T00:53:45.934Z,98699.41
2022-07-31T00:56:47.737Z,98691.22
2022-07-31T00:59:49.560Z,98695.13
2022-07-31T01:02:51.250Z,98692.34
2022-07-31T01:05:53.115Z,98683.06
2022-07-31T01:08:56.338Z,98678.00
2022-07-31T01:12:00.838Z,98678.53
2022-07-31T01:15:05.134Z,98673.47
2022-07-31T01:18:08.354Z,98683.94
2022-07-31T01:21:15.914Z,98683.31
2022-07-31T01:24:37.839Z,98680.16
2022-07-31T01:27:49.757Z,98677.25
2022-07-31T01:31:17.289Z,98680.91
2022-07-31T01:34:23.575Z,98675.75
2022-07-31T01:37:30.329Z,98672.94
2022-07-31T01:40:35.709Z,98676.84
2022-07-31T01:43:43.075Z,98668.19
2022-07-31T01:46:47.484Z,98669.06
2022-07-31T01:49:49.625Z,98679.81
2022-07-31T01:52:51.908Z,98673.81
2022-07-31T01:56:02.852Z,98680.69
2022-07-31T01:59:20.584Z,98675.75
2022-07-31T02:02:27.122Z,98674.31
2022-07-31T02:05:29.292Z,98671.22
2022-07-31T02:08:32.438Z,98672.25
2022-07-31T02:11:53.725Z,98672.25
2022-07-31T02:14:56.797Z,98669.47
2022-07-31T02:18:00.772Z,98670.34
2022-07-31T02:21:05.739Z,98669.72
2022-07-31T02:24:10.689Z,98671.63
2022-07-31T02:27:54.220Z,98664.75
2022-07-31T02:30:39.426Z,98667.78
2022-07-31T02:33:45.316Z,98660.44
2022-07-31T02:36:47.584Z,98657.28
2022-07-31T02:39:50.000Z,98660.50
2022-07-31T02:42:52.125Z,98660.81
2022-07-31T02:45:54.635Z,98654.38
2022-07-31T02:48:58.166Z,98656.84
2022-07-31T02:51:59.904Z,98657.63
2022-07-31T02:55:03.006Z,98660.09
2022-07-31T02:58:04.830Z,98653.75
2022-07-31T03:01:06.683Z,98652.75
2022-07-31T03:04:10.331Z,98649.75
2022-07-31T03:07:12.204Z,98647.06
2022-07-31T03:10:14.134Z,98642.75
2022-07-31T03:13:16.546Z,98645.34
2022-07-31T03:16:19.753Z,98634.66
2022-07-31T03:19:23.665Z,98638.22
2022-07-31T03:22:25.336Z,98637.81
2022-07-31T03:25:27.289Z,98631.22
2022-07-31T03:28:29.274Z,98625.59
2022-07-31T03:31:30.801Z,98625.06
2022-07-31T03:34:33.852Z,98615.66
2022-07-31T03:37:35.526Z,98617.56
2022-07-31T03:40:37.202Z,98620.56
2022-07-31T03:43:46.827Z,98618.19
2022-07-31T03:46:49.690Z,98621.84
2022-07-31T03:49:54.286Z,98626.47
2022-07-31T03:52:56.475Z,98626.78
2022-07-31T03:56:02.585Z,98635.06
2022-07-31T03:59:04.504Z,98631.63
2022-07-31T04:02:08.168Z,98636.13
2022-07-31T04:05:14.405Z,98638.59
2022-07-31T04:08:16.078Z,98637.53
2022-07-31T04:11:17.821Z,98637.25
2022-07-31T04:14:19.344Z,98637.88
2022-07-31T04:17:20.996Z,98629.72
2022-07-31T04:20:24.919Z,98639.00
2022-07-31T04:23:32.436Z,98645.69
2022-07-31T04:26:34.589Z,98644.31
2022-07-31T04:29:36.438Z,98643.81
2022-07-31T04:32:38.118Z,98648.75
2022-07-31T04:35:42.298Z,98646.63
2022-07-31T04:38:43.856Z,98645.25
2022-07-31T04:41:45.463Z,98643.94
2022-07-31T04:44:47.135Z,98640.94
2022-07-31T04:47:48.731Z,98641.47
2022-07-31T04:50:51.968Z,98652.03
2022-07-31T04:53:53.575Z,98652.69
2022-07-31T04:56:55.844Z,98657.00
2022-07-31T05:00:00.211Z,98650.53
2022-07-31T05:03:02.685Z,98645.78
2022-07-31T05:06:12.288Z,98657.13
2022-07-31T05:09:19.077Z,98651.63
2022-07-31T05:12:20.830Z,98651.50
2022-07-31T05:15:23.039Z,98651.63
2022-07-31T05:18:24.568Z,98641.59
2022-07-31T05:21:27.747Z,98634.13
2022-07-31T05:24:33.058Z,98632.31
2022-07-31T05:27:36.143Z,98621.97
2022-07-31T05:30:40.795Z,98623.16
2022-07-31T05:33:42.733Z,98622.06
2022-07-31T05:36:45.794Z,98625.28
2022-07-31T05:39:47.499Z,98619.25
2022-07-31T05:42:49.060Z,98621.16
2022-07-31T05:45:50.997Z,98633.97
2022-07-31T05:48:52.568Z,98630.72
2022-07-31T05:51:55.752Z,98624.66
2022-07-31T05:54:57.386Z,98624.09
2022-07-31T05:58:07.076Z,98618.22
2022-07-31T06:01:08.683Z,98618.75
2022-07-31T06:04:10.601Z,98620.25
2022-07-31T06:07:13.691Z,98619.88
2022-07-31T06:10:16.591Z,98631.44
2022-07-31T06:13:19.275Z,98628.63
2022-07-31T06:16:25.258Z,98632.19
2022-07-31T06:19:27.122Z,98632.94
2022-07-31T06:22:30.501Z,98637.97
2022-07-31T06:25:38.767Z,98630.41
2022-07-31T06:28:47.521Z,98630.78
2022-07-31T06:31:50.105Z,98639.41
2022-07-31T06:34:51.678Z,98619.28
2022-07-31T06:37:54.585Z,98630.94
2022-07-31T06:40:56.435Z,98632.91
2022-07-31T06:43:58.214Z,98632.03
2022-07-31T06:46:59.835Z,98634.19
2022-07-31T06:50:05.629Z,98625.28
2022-07-31T06:53:08.545Z,98629.19
2022-07-31T06:56:11.141Z,98618.06
2022-07-31T06:59:12.748Z,98615.25
2022-07-31T07:02:14.504Z,98619.69
2022-07-31T07:05:16.268Z,98612.09
2022-07-31T07:08:19.567Z,98617.00
2022-07-31T07:11:23.727Z,98610.53
2022-07-31T07:14:25.504Z,98613.13
2022-07-31T07:17:29.589Z,98608.19
2022-07-31T07:20:31.439Z,98605.97
2022-07-31T07:23:34.528Z,98601.91
2022-07-31T07:26:36.298Z,98597.84
2022-07-31T07:29:38.107Z,98598.03
2022-07-31T07:32:39.731Z,98600.97
2022-07-31T07:35:41.727Z,98602.47
2022-07-31T07:38:44.836Z,98595.06
2022-07-31T07:41:46.415Z,98594.09
2022-07-31T07:44:50.859Z,98591.09
2022-07-31T07:47:54.073Z,98592.47
2022-07-31T07:51:08.802Z,98595.63
2022-07-31T07:54:12.105Z,98595.22
2022-07-31T07:57:14.484Z,98597.69
2022-07-31T08:00:16.365Z,98598.41
2022-07-31T08:03:51.085Z,98589.44
2022-07-31T08:06:41.247Z,98587.47
2022-07-31T08:09:44.162Z,98579.06
2022-07-31T08:12:45.838Z,98593.97
2022-07-31T08:15:47.473Z,98585.84
2022-07-31T08:18:49.167Z,98581.88
2022-07-31T08:21:50.673Z,98590.09
2022-07-31T08:24:53.938Z,98580.59
2022-07-31T08:27:55.792Z,98578.69
2022-07-31T08:30:59.817Z,98578.81
2022-07-31T08:34:01.471Z,98574.50
2022-07-31T08:37:51.638Z,98579.66
2022-07-31T08:40:28.763Z,98575.91
2022-07-31T08:44:00.009Z,98562.25
2022-07-31T08:47:01.759Z,98561.47
2022-07-31T08:50:04.457Z,98554.59
2022-07-31T08:53:06.693Z,98558.31
2022-07-31T08:56:10.598Z,98550.44
2022-07-31T08:59:12.125Z,98554.63
2022-07-31T09:02:16.010Z,98554.09
2022-07-31T09:05:17.751Z,98546.69
2022-07-31T09:08:19.353Z,98542.25
2022-07-31T09:11:23.380Z,98541.66
2022-07-31T09:14:28.407Z,98546.22
2022-07-31T09:17:34.888Z,98540.66
2022-07-31T09:20:39.030Z,98537.09
2022-07-31T09:23:45.258Z,98536.97
2022-07-31T09:26:48.309Z,98537.09
2022-07-31T09:29:49.936Z,98523.19
2022-07-31T09:32:51.703Z,98532.34
2022-07-31T09:35:58.302Z,98520.47
2022-07-31T09:39:05.289Z,98528.38
2022-07-31T09:42:16.897Z,98520.94
2022-07-31T09:45:20.310Z,98517.81
2022-07-31T09:48:26.611Z,98516.78
2022-07-31T09:51:37.345Z,98514.47
2022-07-31T09:54:38.952Z,98513.31
2022-07-31T09:57:51.111Z,98515.16
2022-07-31T10:00:54.079Z,98507.31
2022-07-31T10:04:00.339Z,98511.28
2022-07-31T10:07:02.683Z,98515.59
2022-07-31T10:10:05.524Z,98505.00
2022-07-31T10:13:11.006Z,98499.06
2022-07-31T10:16:13.410Z,98504.19
2022-07-31T10:19:15.707Z,98494.16
2022-07-31T10:22:18.346Z,98502.97
2022-07-31T10:25:20.913Z,98497.69
2022-07-31T10:28:26.405Z,98494.38
2022-07-31T10:31:31.162Z,98490.97
2022-07-31T10:34:34.932Z,98489.00
2022-07-31T10:37:39.596Z,98484.47
2022-07-31T10:40:43.935Z,98472.75
2022-07-31T10:43:51.193Z,98466.31
2022-07-31T10:46:52.873Z,98470.69
2022-07-31T10:49:54.516Z,98472.22
2022-07-31T10:53:07.006Z,98472.81
2022-07-31T10:56:13.756Z,98468.09
2022-07-31T10:59:27.935Z,98466.69
2022-07-31T11:02:30.663Z,98464.56
2022-07-31T11:05:32.341Z,98458.25
2022-07-31T11:08:54.478Z,98454.13
2022-07-31T11:11:58.440Z,98447.94
2022-07-31T11:15:01.970Z,98451.44
2022-07-31T11:18:25.332Z,98449.06
2022-07-31T11:21:40.031Z,98455.72
2022-07-31T11:24:42.404Z,98456.19
2022-07-31T11:27:47.407Z,98456.66
2022-07-31T11:30:51.502Z,98445.44
2022-07-31T11:33:53.158Z,98439.63
2022-07-31T11:36:56.343Z,98442.56
2022-07-31T11:39:58.197Z,98437.13
2022-07-31T11:43:25.598Z,98440.28
2022-07-31T11:46:30.315Z,98430.25
2022-07-31T11:49:47.740Z,98425.81
2022-07-31T11:52:51.132Z,98424.47
2022-07-31T11:55:56.897Z,98410.75
2022-07-31T11:59:00.662Z,98417.88
2022-07-31T12:02:05.050Z,98412.03
2022-07-31T12:05:07.242Z,98409.03
2022-07-31T12:08:10.965Z,98412.16
2022-07-31T12:11:12.987Z,98414.50
2022-07-31T12:14:14.625Z,98409.38
2022-07-31T12:17:21.197Z,98411.06
2022-07-31T12:20:34.995Z,98402.72
2022-07-31T12:23:41.894Z,98400.13
2022-07-31T12:26:52.721Z,98400.81
2022-07-31T12:29:54.674Z,98396.66
2022-07-31T12:33:07.731Z,98390.19
2022-07-31T12:36:13.606Z,98388.13
2022-07-31T12:39:15.184Z,98383.22
2022-07-31T12:42:21.562Z,98383.44
2022-07-31T12:45:32.248Z,98388.09
2022-07-31T12:48:40.110Z,98373.03
2022-07-31T12:51:45.987Z,98376.25
2022-07-31T12:54:49.244Z,98377.25
2022-07-31T12:57:52.207Z,98370.38
2022-07-31T13:00:54.981Z,98371.78
2022-07-31T13:04:03.409Z,98357.94
2022-07-31T13:07:05.614Z,98366.63
2022-07-31T13:10:20.177Z,98368.69
2022-07-31T13:13:24.034Z,98371.47
2022-07-31T13:16:25.693Z,98370.53
2022-07-31T13:19:28.905Z,98363.06
2022-07-31T13:22:30.780Z,98360.69
2022-07-31T13:25:32.714Z,98360.84
2022-07-31T13:28:34.549Z,98360.16
2022-07-31T13:31:36.058Z,98358.28
2022-07-31T13:34:40.772Z,98360.59
2022-07-31T13:37:43.306Z,98360.97
2022-07-31T13:41:03.614Z,98361.97
2022-07-31T13:44:05.982Z,98359.28
2022-07-31T13:47:07.723Z,98358.06
2022-07-31T13:50:11.011Z,98354.63
2022-07-31T13:53:12.679Z,98355.63
2022-07-31T13:56:14.352Z,98356.34
2022-07-31T13:59:35.881Z,98343.50
2022-07-31T14:02:37.454Z,98350.97
2022-07-31T14:05:40.783Z,98344.66
2022-07-31T14:08:50.283Z,98339.44
2022-07-31T14:11:52.456Z,98347.25
2022-07-31T14:14:53.948Z,98348.31
2022-07-31T14:17:56.136Z,98361.31
2022-07-31T14:20:59.071Z,98363.16
2022-07-31T14:24:03.128Z,98366.41
2022-07-31T14:27:04.830Z,98370.94
2022-07-31T14:30:06.975Z,98381.19
2022-07-31T14:33:08.639Z,98382.44
2022-07-31T14:36:13.459Z,98377.44
2022-07-31T14:39:15.237Z,98385.16
2022-07-31T14:42:22.495Z,98374.88
2022-07-31T14:45:27.596Z,98381.03
2022-07-31T14:48:29.374Z,98378.63
2022-07-31T14:51:32.596Z,98369.34
2022-07-31T14:54:34.163Z,98375.63
2022-07-31T14:57:35.954Z,98369.88
2022-07-31T15:00:37.646Z,98362.91
2022-07-31T15:03:39.291Z,98364.91
2022-07-31T15:06:56.032Z,98357.75
2022-07-31T15:10:04.296Z,98364.75
2022-07-31T15:13:05.904Z,98363.19
2022-07-31T15:16:09.571Z,98366.47
2022-07-31T15:19:12.091Z,98370.03
2022-07-31T15:22:19.171Z,98368.13
2022-07-31T15:25:20.947Z,98379.44
2022-07-31T15:28:22.610Z,98372.84
2022-07-31T15:31:26.488Z,98368.25
2022-07-31T15:34:28.131Z,98370.28
2022-07-31T15:37:33.073Z,98373.41
2022-07-31T15:40:34.931Z,98360.44
2022-07-31T15:43:37.675Z,98363.41
2022-07-31T15:46:42.968Z,98373.00
2022-07-31T15:49:44.784Z,98369.16
2022-07-31T15:52:48.256Z,98370.91
2022-07-31T15:55:49.922Z,98368.09
2022-07-31T15:58:53.922Z,98371.97
2022-07-31T16:01:55.622Z,98367.56
2022-07-31T16:05:11.021Z,98375.38
2022-07-31T16:08:31.039Z,98361.28
2022-07-31T16:12:04.601Z,98348.56
2022-07-31T16:14:58.845Z,98356.00
2022-07-31T16:18:00.515Z,98352.69
2022-07-31T16:21:02.187Z,98353.84
2022-07-31T16:24:05.816Z,98337.16
2022-07-31T16:27:07.753Z,98342.97
2022-07-31T16:30:09.921Z,98339.56
2022-07-31T16:33:11.665Z,98332.69
2022-07-31T16:36:13.529Z,98322.56
2022-07-31T16:39:24.638Z,98324.41
2022-07-31T16:42:26.301Z,98318.97
2022-07-31T16:45:28.256Z,98310.13
2022-07-31T16:48:29.965Z,98307.41
2022-07-31T16:51:31.593Z,98306.41
2022-07-31T16:54:34.605Z,98289.66
2022-07-31T16:57:37.794Z,98288.38
2022-07-31T17:00:39.949Z,98281.78
2022-07-31T17:04:01.887Z,98286.19
2022-07-31T17:07:05.334Z,98280.75
2022-07-31T17:10:09.239Z,98278.31
2022-07-31T17:13:11.245Z,98286.00
2022-07-31T17:16:12.792Z,98282.13
2022-07-31T17:19:14.637Z,98274.44
2022-07-31T17:22:18.663Z,98267.75
2022-07-31T17:25:22.861Z,98263.78
2022-07-31T17:28:24.490Z,98276.50
2022-07-31T17:31:26.497Z,98266.38
2022-07-31T17:34:28.362Z,98264.97
2022-07-31T17:37:30.164Z,98260.81
2022-07-31T17:40:43.513Z,98262.97
2022-07-31T17:43:50.585Z,98259.72
2022-07-31T17:46:55.410Z,98247.41
2022-07-31T17:49:59.546Z,98252.31
2022-07-31T17:53:01.494Z,98246.75
2022-07-31T17:56:05.503Z,98254.19
2022-07-31T17:59:07.651Z,98255.63
2022-07-31T18:02:09.714Z,98262.19
2022-07-31T18:05:12.156Z,98266.03
2022-07-31T18:08:13.760Z,98261.94
2022-07-31T18:11:17.022Z,98264.78
2022-07-31T18:14:19.186Z,98263.34
2022-07-31T18:17:25.723Z,98267.91
2022-07-31T18:20:27.504Z,98269.91
2022-07-31T18:23:32.272Z,98267.34
2022-07-31T18:26:38.095Z,98267.50
2022-07-31T18:29:39.890Z,98259.50
2022-07-31T18:32:42.969Z,98257.94
2022-07-31T18:35:45.748Z,98257.06
2022-07-31T18:38:47.939Z,98259.94
2022-07-31T18:41:50.987Z,98261.94
2022-07-31T18:44:52.744Z,98258.50
2022-07-31T18:47:54.818Z,98266.66
2022-07-31T18:51:01.467Z,98270.38
2022-07-31T18:54:05.834Z,98263.09
2022-07-31T18:57:09.143Z,98268.19
2022-07-31T19:00:11.401Z,98265.47
2022-07-31T19:03:12.995Z,98276.59
2022-07-31T19:06:14.768Z,98284.13
2022-07-31T19:09:18.132Z,98281.78
2022-07-31T19:12:21.167Z,98290.94
2022-07-31T19:15:23.849Z,98305.50
2022-07-31T19:18:28.112Z,98310.25
2022-07-31T19:21:42.457Z,98309.75
2022-07-31T19:24:44.518Z,98316.09
2022-07-31T19:27:49.400Z,98325.19
2022-07-31T19:30:52.509Z,98318.44
2022-07-31T19:33:54.224Z,98325.53
2022-07-31T19:36:55.925Z,98328.25
2022-07-31T19:39:57.615Z,98322.63
2022-07-31T19:43:00.949Z,98328.09
2022-07-31T19:46:11.187Z,98322.44
2022-07-31T19:49:13.904Z,98325.28
2022-07-31T19:52:15.771Z,98320.50
2022-07-31T19:55:17.622Z,98334.63
2022-07-31T19:58:23.517Z,98330.81
2022-07-31T20:01:27.567Z,98333.78
2022-07-31T20:04:29.203Z,98330.47
2022-07-31T20:07:32.912Z,98338.69
2022-07-31T20:10:34.527Z,98341.75
2022-07-31T20:13:40.617Z,98338.78
2022-07-31T20:16:42.178Z,98332.38
2022-07-31T20:20:14.410Z,98325.91
2022-07-31T20:23:06.001Z,98319.88
2022-07-31T20:26:08.732Z,98319.44
2022-07-31T20:29:11.738Z,98319.53
2022-07-31T20:32:13.740Z,98324.22
2022-07-31T20:35:31.046Z,98325.06
2022-07-31T20:38:37.417Z,98316.97
2022-07-31T20:41:39.155Z,98317.97
2022-07-31T20:44:44.784Z,98318.38
2022-07-31T20:47:49.617Z,98316.66
2022-07-31T20:50:51.617Z,98306.84
2022-07-31T20:53:53.806Z,98302.28
2022-07-31T20:56:55.497Z,98316.66
2022-07-31T20:59:58.452Z,98306.84
2022-07-31T21:03:00.627Z,98313.94
2022-07-31T21:06:03.655Z,98301.53
2022-07-31T21:09:08.315Z,98308.66
2022-07-31T21:12:10.071Z,98298.97
2022-07-31T21:15:41.191Z,98303.25
2022-07-31T21:18:36.399Z,98305.84
2022-07-31T21:21:40.571Z,98305.34
2022-07-31T21:24:42.535Z,98308.69
2022-07-31T21:27:44.707Z,98310.94
2022-07-31T21:30:48.176Z,98306.03
2022-07-31T21:33:49.884Z,98299.91
2022-07-31T21:36:51.766Z,98307.28
2022-07-31T21:39:56.797Z,98303.34
2022-07-31T21:42:58.969Z,98307.03
2022-07-31T21:46:04.473Z,98310.97
2022-07-31T21:49:09.078Z,98310.00
2022-07-31T21:52:11.448Z,98312.69
2022-07-31T21:55:16.386Z,98315.78
2022-07-31T21:58:18.066Z,98320.34
2022-07-31T22:01:21.297Z,98323.03
2022-07-31T22:04:29.137Z,98321.56
2022-07-31T22:07:41.435Z,98323.41
2022-07-31T22:10:43.318Z,98322.53
2022-07-31T22:13:45.169Z,98321.69
2022-07-31T22:16:48.294Z,98321.22
2022-07-31T22:19:50.322Z,98319.25
2022-07-31T22:22:52.352Z,98322.09
2022-07-31T22:25:54.160Z,98314.97
2022-07-31T22:28:56.657Z,98324.66
2022-07-31T22:31:59.994Z,98316.19
2022-07-31T22:35:01.887Z,98319.88
2022-07-31T22:38:03.543Z,98319.03
2022-07-31T22:41:05.309Z,98322.84
2022-07-31T22:44:12.339Z,98314.88
2022-07-31T22:47:17.825Z,98316.94
2022-07-31T22:50:19.652Z,98317.19
2022-07-31T22:53:21.498Z,98318.06
2022-07-31T22:56:23.477Z,98317.59
2022-07-31T22:59:25.216Z,98320.28
2022-07-31T23:02:28.373Z,98321.03
2022-07-31T23:06:03.634Z,98325.56
2022-07-31T23:08:54.890Z,98329.13
2022-07-31T23:11:57.050Z,98324.72
2022-07-31T23:14:58.897Z,98323.34
2022-07-31T23:18:02.711Z,98323.09
2022-07-31T23:21:08.319Z,98323.09
2022-07-31T23:24:10.701Z,98328.50
2022-07-31T23:27:12.504Z,98323.72
2022-07-31T23:30:14.486Z,98327.63
2022-07-31T23:33:20.642Z,98329.47
2022-07-31T23:36:22.254Z,98316.97
2022-07-31T23:39:24.371Z,98329.47
2022-07-31T23:42:38.603Z,98319.66
2022-07-31T23:45:40.225Z,98310.34
2022-07-31T23:48:44.175Z,98314.03
2022-07-31T23:51:46.327Z,98310.56
2022-07-31T23:54:49.121Z,98309.97
2022-07-31T23:57:51.023Z,98305.31
